createdAt,value
2018-12-20T00:02:01.036Z,36.90
2018-12-20T00:04:31.793Z,36.50
2018-12-20T00:07:02.205Z,40.10
2018-12-20T00:09:32.378Z,36.67
2018-12-20T00:12:02.512Z,43.60
2018-12-20T00:14:54.971Z,37.47
2018-12-20T00:17:30.387Z,37.27
2018-12-20T00:20:00.416Z,46.73
2018-12-20T00:22:30.598Z,38.80
2018-12-20T00:25:00.651Z,38.83
2018-12-20T00:27:30.854Z,41.20
2018-12-20T00:30:01.186Z,43.17
2018-12-20T00:32:31.232Z,37.37
2018-12-20T00:35:01.489Z,37.23
2018-12-20T00:37:31.872Z,34.87
2018-12-20T00:40:06.379Z,35.03
2018-12-20T00:42:34.264Z,42.03
2018-12-20T00:45:05.226Z,47.90
2018-12-20T00:47:35.515Z,48.70
2018-12-20T00:50:06.253Z,47.90
2018-12-20T00:52:36.338Z,52.30
2018-12-20T00:55:06.404Z,46.67
2018-12-20T00:57:36.450Z,48.97
2018-12-20T01:00:10.128Z,47.53
2018-12-20T01:02:40.552Z,48.27
2018-12-20T01:05:11.227Z,47.43
2018-12-20T01:07:41.517Z,39.97
2018-12-20T01:10:11.808Z,40.37
2018-12-20T01:12:42.091Z,41.73
2018-12-20T01:15:12.257Z,36.13
2018-12-20T01:17:42.354Z,42.23
2018-12-20T01:20:12.909Z,34.07
2018-12-20T01:22:43.317Z,36.70
2018-12-20T01:25:13.610Z,40.73
2018-12-20T01:27:43.959Z,40.73
2018-12-20T01:30:14.281Z,38.90
2018-12-20T01:32:45.580Z,33.43
2018-12-20T01:35:15.831Z,35.10
2018-12-20T01:37:46.397Z,38.07
2018-12-20T01:40:16.661Z,38.40
2018-12-20T01:42:47.082Z,38.07
2018-12-20T01:45:17.262Z,36.00
2018-12-20T01:47:47.564Z,42.70
2018-12-20T01:50:17.718Z,34.30
2018-12-20T01:52:48.706Z,30.83
2018-12-20T01:55:19.710Z,42.57
2018-12-20T01:57:50.113Z,35.30
2018-12-20T02:00:20.405Z,37.20
2018-12-20T02:02:50.650Z,42.13
2018-12-20T02:05:20.964Z,36.73
2018-12-20T02:07:51.446Z,37.10
2018-12-20T02:10:21.637Z,38.17
2018-12-20T02:12:51.755Z,39.40
2018-12-20T02:15:21.847Z,38.40
2018-12-20T02:17:52.090Z,40.80
2018-12-20T02:20:24.083Z,40.33
2018-12-20T02:22:54.388Z,39.37
2018-12-20T02:25:24.676Z,36.10
2018-12-20T02:27:55.217Z,34.93
2018-12-20T02:30:25.468Z,38.90
2018-12-20T02:32:55.699Z,40.23
2018-12-20T02:35:26.270Z,34.03
2018-12-20T02:37:56.708Z,39.13
2018-12-20T02:40:27.044Z,36.93
2018-12-20T02:42:57.687Z,37.30
2018-12-20T02:45:27.818Z,31.80
2018-12-20T02:47:58.753Z,40.57
2018-12-20T02:50:29.491Z,40.80
2018-12-20T02:52:59.756Z,28.47
2018-12-20T02:55:30.005Z,35.87
2018-12-20T02:58:00.684Z,34.90
2018-12-20T03:00:30.846Z,39.07
2018-12-20T03:03:00.861Z,35.00
2018-12-20T03:05:30.913Z,36.17
2018-12-20T03:08:01.167Z,38.73
2018-12-20T03:10:31.239Z,52.10
2018-12-20T03:13:01.643Z,50.10
2018-12-20T03:15:31.733Z,49.90
2018-12-20T03:18:01.944Z,49.10
2018-12-20T03:20:35.099Z,41.60
2018-12-20T03:23:07.004Z,34.40
2018-12-20T03:25:37.377Z,41.20
2018-12-20T03:28:08.041Z,39.43
2018-12-20T03:30:38.788Z,38.10
2018-12-20T03:33:10.627Z,39.03
2018-12-20T03:35:40.866Z,35.10
2018-12-20T03:38:11.085Z,36.33
2018-12-20T03:40:41.677Z,33.80
2018-12-20T03:43:12.270Z,35.13
2018-12-20T03:45:42.692Z,34.77
2018-12-20T03:48:12.857Z,30.90
2018-12-20T03:50:42.889Z,32.53
2018-12-20T03:53:12.999Z,38.23
2018-12-20T03:55:44.402Z,38.13
2018-12-20T03:58:14.532Z,43.10
2018-12-20T04:00:44.637Z,36.00
2018-12-20T04:03:15.860Z,37.40
2018-12-20T04:14:47.435Z,28.67
2018-12-20T04:17:17.633Z,34.00
2018-12-20T04:19:47.766Z,37.93
2018-12-20T04:22:17.933Z,31.20
2018-12-20T04:24:48.139Z,33.03
2018-12-20T04:27:18.304Z,33.10
2018-12-20T04:29:48.491Z,34.53
2018-12-20T04:32:22.536Z,32.77
2018-12-20T04:34:52.565Z,34.53
2018-12-20T04:37:22.713Z,34.40
2018-12-20T04:39:53.110Z,35.57
2018-12-20T04:42:23.320Z,38.70
2018-12-20T04:44:53.425Z,33.03
2018-12-20T04:47:23.805Z,35.97
2018-12-20T04:49:54.090Z,37.07
2018-12-20T04:52:24.238Z,42.07
2018-12-20T04:54:54.312Z,46.30
2018-12-20T04:57:24.794Z,35.27
2018-12-20T04:59:55.081Z,39.10
2018-12-20T05:02:26.263Z,35.03
2018-12-20T05:04:57.834Z,39.00
2018-12-20T05:07:28.822Z,35.10
2018-12-20T05:09:59.349Z,44.37
2018-12-20T05:12:29.692Z,36.33
2018-12-20T05:14:59.983Z,35.57
2018-12-20T05:17:30.358Z,37.90
2018-12-20T05:20:00.463Z,33.10
2018-12-20T05:22:30.710Z,35.97
2018-12-20T05:25:00.981Z,45.73
2018-12-20T05:27:31.328Z,37.30
2018-12-20T05:30:01.405Z,34.20
2018-12-20T05:32:31.538Z,38.83
2018-12-20T05:35:02.208Z,38.80
2018-12-20T05:37:32.665Z,49.40
2018-12-20T05:40:03.027Z,38.60
2018-12-20T05:42:33.394Z,45.23
2018-12-20T05:45:03.928Z,36.37
2018-12-20T05:47:34.192Z,32.37
2018-12-20T05:50:04.887Z,32.50
2018-12-20T05:52:35.040Z,40.87
2018-12-20T05:55:05.613Z,31.63
2018-12-20T05:57:35.749Z,34.53
2018-12-20T06:00:06.973Z,35.67
2018-12-20T06:02:37.016Z,38.37
2018-12-20T06:05:07.423Z,34.33
2018-12-20T06:07:37.785Z,33.83
2018-12-20T06:10:08.090Z,38.87
2018-12-20T06:12:38.297Z,38.27
2018-12-20T06:15:08.672Z,39.60
2018-12-20T06:17:38.718Z,43.13
2018-12-20T06:20:09.757Z,42.03
2018-12-20T06:22:40.320Z,34.40
2018-12-20T06:25:10.992Z,41.33
2018-12-20T06:27:45.407Z,35.70
2018-12-20T06:30:33.834Z,38.40
2018-12-20T06:33:19.973Z,40.53
2018-12-20T06:36:06.653Z,39.07
2018-12-20T06:38:51.936Z,38.47
2018-12-20T06:41:37.955Z,37.47
2018-12-20T06:44:30.338Z,39.77
2018-12-20T06:47:18.554Z,34.90
2018-12-20T06:50:03.704Z,35.17
2018-12-20T06:52:50.051Z,35.37
2018-12-20T06:55:35.645Z,45.97
2018-12-20T06:58:27.070Z,38.30
2018-12-20T07:01:12.577Z,38.73
2018-12-20T07:04:00.152Z,43.33
2018-12-20T07:06:48.997Z,54.93
2018-12-20T07:09:38.103Z,48.60
2018-12-20T07:12:25.823Z,47.47
2018-12-20T07:18:09.943Z,46.13
2018-12-20T07:20:52.937Z,44.30
2018-12-20T07:23:37.703Z,41.60
2018-12-20T07:26:24.227Z,48.23
2018-12-20T07:29:08.831Z,44.30
2018-12-20T07:31:48.066Z,44.00
2018-12-20T07:34:22.449Z,51.00
2018-12-20T07:36:53.361Z,42.43
2018-12-20T07:39:23.639Z,42.77
2018-12-20T07:41:53.745Z,47.93
2018-12-20T07:44:23.773Z,41.50
2018-12-20T07:46:53.861Z,48.93
2018-12-20T07:49:24.041Z,46.70
2018-12-20T07:51:54.100Z,44.93
2018-12-20T07:54:24.706Z,38.93
2018-12-20T07:56:55.184Z,52.53
2018-12-20T07:59:25.303Z,45.53
2018-12-20T08:01:55.857Z,49.77
2018-12-20T08:04:26.020Z,43.90
2018-12-20T08:06:56.076Z,49.37
2018-12-20T08:09:26.072Z,41.97
2018-12-20T08:11:56.143Z,40.77
2018-12-20T08:14:26.366Z,41.90
2018-12-20T08:16:56.380Z,46.13
2018-12-20T08:19:26.413Z,49.07
2018-12-20T08:21:56.805Z,48.20
2018-12-20T08:24:26.847Z,48.13
2018-12-20T08:26:57.000Z,45.03
2018-12-20T08:29:27.211Z,54.33
2018-12-20T08:31:57.237Z,60.60
2018-12-20T08:34:28.225Z,50.50
2018-12-20T08:36:58.425Z,77.07
2018-12-20T08:39:28.483Z,83.73
2018-12-20T08:41:58.486Z,58.87
2018-12-20T08:44:28.671Z,54.93
2018-12-20T08:46:59.179Z,58.53
2018-12-20T08:49:30.169Z,55.20
2018-12-20T08:52:00.194Z,50.57
2018-12-20T08:54:30.213Z,47.83
2018-12-20T08:57:00.403Z,46.60
2018-12-20T08:59:30.552Z,44.73
2018-12-20T09:02:01.508Z,47.03
2018-12-20T09:04:33.089Z,51.83
2018-12-20T09:07:03.449Z,46.27
2018-12-20T09:09:33.792Z,53.17
2018-12-20T09:12:03.802Z,57.90
2018-12-20T09:14:33.926Z,48.20
2018-12-20T09:17:03.960Z,52.43
2018-12-20T09:19:33.994Z,49.90
2018-12-20T09:22:04.039Z,56.37
2018-12-20T09:24:34.610Z,50.50
2018-12-20T09:27:04.815Z,60.43
2018-12-20T09:29:34.859Z,52.70
2018-12-20T09:32:04.912Z,52.03
2018-12-20T09:34:35.058Z,62.20
2018-12-20T09:37:05.360Z,48.90
2018-12-20T09:39:35.390Z,54.80
2018-12-20T09:42:05.499Z,54.80
2018-12-20T09:44:35.632Z,62.27
2018-12-20T09:47:11.779Z,57.57
2018-12-20T09:49:42.358Z,62.63
2018-12-20T09:52:12.469Z,55.07
2018-12-20T09:54:42.638Z,57.73
2018-12-20T09:57:12.677Z,61.73
2018-12-20T09:59:42.805Z,65.37
2018-12-20T10:02:12.813Z,61.07
2018-12-20T10:04:42.941Z,71.03
2018-12-20T10:07:12.956Z,71.53
2018-12-20T10:09:43.137Z,67.07
2018-12-20T10:12:13.199Z,60.07
2018-12-20T10:14:43.494Z,57.57
2018-12-20T10:17:19.811Z,65.83
2018-12-20T10:19:45.971Z,61.47
2018-12-20T10:22:16.025Z,61.80
2018-12-20T10:24:46.085Z,58.13
2018-12-20T10:27:16.140Z,51.43
2018-12-20T10:29:46.709Z,47.57
2018-12-20T10:32:16.817Z,54.40
2018-12-20T10:34:46.964Z,59.13
2018-12-20T10:37:17.078Z,52.00
2018-12-20T10:39:47.184Z,49.50
2018-12-20T10:42:17.285Z,67.10
2018-12-20T10:44:47.741Z,61.80
2018-12-20T10:47:29.257Z,60.20
2018-12-20T10:49:58.084Z,51.50
2018-12-20T10:52:28.121Z,54.50
2018-12-20T10:54:58.253Z,44.33
2018-12-20T10:57:28.272Z,47.63
2018-12-20T10:59:58.338Z,55.50
2018-12-20T11:02:34.762Z,49.37
2018-12-20T11:05:11.189Z,51.63
2018-12-20T11:07:46.562Z,50.73
2018-12-20T11:10:25.176Z,48.00
2018-12-20T11:15:56.991Z,50.03
2018-12-20T11:18:27.040Z,47.00
2018-12-20T11:20:57.203Z,49.13
2018-12-20T11:23:27.525Z,45.70
2018-12-20T11:25:57.529Z,36.53
2018-12-20T11:28:28.249Z,37.47
2018-12-20T11:30:58.315Z,24.67
2018-12-20T11:33:28.393Z,20.07
2018-12-20T11:35:58.534Z,17.40
2018-12-20T11:38:28.662Z,17.17
2018-12-20T11:40:58.673Z,11.83
2018-12-20T11:43:28.673Z,13.70
2018-12-20T11:45:58.737Z,12.77
2018-12-20T11:48:28.810Z,10.80
2018-12-20T11:50:58.826Z,15.63
2018-12-20T11:53:28.941Z,11.23
2018-12-20T11:55:58.983Z,20.13
2018-12-20T11:58:29.225Z,36.40
2018-12-20T12:00:59.363Z,34.13
2018-12-20T12:03:29.489Z,26.67
2018-12-20T12:05:59.614Z,30.47
2018-12-20T12:08:29.621Z,10.33
2018-12-20T12:10:59.708Z,8.43
2018-12-20T12:13:29.753Z,12.13
2018-12-20T12:15:59.813Z,10.13
2018-12-20T12:18:29.951Z,11.00
2018-12-20T12:21:00.151Z,6.10
2018-12-20T12:23:30.201Z,9.10
2018-12-20T12:26:00.293Z,8.27
2018-12-20T12:28:30.880Z,6.63
2018-12-20T12:31:01.031Z,5.40
2018-12-20T12:33:31.134Z,6.87
2018-12-20T12:36:01.188Z,6.33
2018-12-20T12:38:31.589Z,6.90
2018-12-20T12:41:01.675Z,9.00
2018-12-20T12:43:31.738Z,6.67
2018-12-20T12:46:01.785Z,6.83
2018-12-20T12:48:31.897Z,6.83
2018-12-20T12:51:02.088Z,10.57
2018-12-20T12:53:32.164Z,7.00
2018-12-20T12:56:02.215Z,7.00
2018-12-20T12:58:32.661Z,5.97
2018-12-20T13:01:02.694Z,5.27
2018-12-20T13:03:32.982Z,14.63
2018-12-20T13:06:03.250Z,7.20
2018-12-20T13:08:33.360Z,7.43
2018-12-20T13:11:03.669Z,11.70
2018-12-20T13:13:34.089Z,7.83
2018-12-20T13:16:04.221Z,9.20
2018-12-20T13:18:34.270Z,47.33
2018-12-20T13:21:04.540Z,21.07
2018-12-20T13:23:35.010Z,24.60
2018-12-20T13:26:05.246Z,23.57
2018-12-20T13:28:35.704Z,21.57
2018-12-20T13:31:06.006Z,39.47
2018-12-20T13:33:36.177Z,124.70
2018-12-20T13:36:06.304Z,96.57
2018-12-20T13:38:36.378Z,127.17
2018-12-20T13:41:06.460Z,113.77
2018-12-20T13:43:36.582Z,38.37
2018-12-20T13:46:06.653Z,55.20
2018-12-20T13:48:37.265Z,46.13
2018-12-20T13:51:07.359Z,84.90
2018-12-20T13:53:37.429Z,68.37
2018-12-20T13:59:08.424Z,81.20
2018-12-20T14:01:42.709Z,48.50
2018-12-20T14:04:25.064Z,65.73
2018-12-20T14:06:55.203Z,94.27
2018-12-20T14:09:25.714Z,161.67
2018-12-20T14:11:55.837Z,155.27
2018-12-20T14:14:25.888Z,126.90
2018-12-20T14:16:55.922Z,113.90
2018-12-20T14:19:26.021Z,150.90
2018-12-20T14:21:56.207Z,115.33
2018-12-20T14:24:26.215Z,61.40
2018-12-20T14:26:56.267Z,50.93
2018-12-20T14:29:26.377Z,50.50
2018-12-20T14:31:56.721Z,50.60
2018-12-20T14:34:26.737Z,43.97
2018-12-20T14:36:56.903Z,90.23
2018-12-20T14:39:26.961Z,44.70
2018-12-20T14:41:57.194Z,51.40
2018-12-20T14:44:27.666Z,41.67
2018-12-20T14:46:57.727Z,29.03
2018-12-20T14:49:27.966Z,28.73
2018-12-20T14:51:58.089Z,24.53
2018-12-20T14:54:28.141Z,25.80
2018-12-20T14:56:58.238Z,19.13
2018-12-20T14:59:28.269Z,27.10
2018-12-20T15:01:59.308Z,24.10
2018-12-20T15:04:32.215Z,24.93
2018-12-20T15:07:02.262Z,20.43
2018-12-20T15:09:32.369Z,52.60
2018-12-20T15:12:03.475Z,57.53
2018-12-20T15:14:33.787Z,59.70
2018-12-20T15:17:03.828Z,34.23
2018-12-20T15:19:33.909Z,42.13
2018-12-20T15:22:04.012Z,96.43
2018-12-20T15:24:34.164Z,42.33
2018-12-20T15:27:04.283Z,22.43
2018-12-20T15:29:35.559Z,28.10
2018-12-20T15:32:05.584Z,33.10
2018-12-20T15:34:35.984Z,26.60
2018-12-20T15:37:06.436Z,20.27
2018-12-20T15:39:36.823Z,16.87
2018-12-20T15:42:06.912Z,19.30
2018-12-20T15:44:37.021Z,28.97
2018-12-20T15:47:07.074Z,39.23
2018-12-20T15:49:41.913Z,49.37
2018-12-20T15:52:09.544Z,38.13
2018-12-20T15:54:40.870Z,41.30
2018-12-20T15:57:11.125Z,28.77
2018-12-20T16:02:42.783Z,29.30
2018-12-20T16:05:12.931Z,26.00
2018-12-20T16:07:43.085Z,25.40
2018-12-20T16:10:13.274Z,18.30
2018-12-20T16:12:43.665Z,17.47
2018-12-20T16:15:13.757Z,13.03
2018-12-20T16:17:43.790Z,13.10
2018-12-20T16:20:13.865Z,13.70
2018-12-20T16:22:44.088Z,14.23
2018-12-20T16:25:14.254Z,11.57
2018-12-20T16:27:44.349Z,26.23
2018-12-20T16:30:14.405Z,33.50
2018-12-20T16:32:44.454Z,65.50
2018-12-20T16:35:14.518Z,56.40
2018-12-20T16:40:44.541Z,55.63
2018-12-20T16:43:14.658Z,47.97
2018-12-20T16:45:44.783Z,48.90
2018-12-20T16:48:17.277Z,45.40
2018-12-20T16:50:47.537Z,46.90
2018-12-20T16:53:17.742Z,44.70
2018-12-20T16:55:50.241Z,34.57
2018-12-20T16:58:20.125Z,34.53
2018-12-20T17:00:50.222Z,32.50
2018-12-20T17:03:20.979Z,29.10
2018-12-20T17:05:53.492Z,28.03
2018-12-20T17:08:23.574Z,27.23
2018-12-20T17:10:53.660Z,24.73
2018-12-20T17:13:23.809Z,28.33
2018-12-20T17:15:53.933Z,25.50
2018-12-20T17:21:24.592Z,26.53
2018-12-20T17:23:54.674Z,30.80
2018-12-20T17:26:24.978Z,27.10
2018-12-20T17:28:55.103Z,28.50
2018-12-20T17:31:25.184Z,23.47
2018-12-20T17:33:55.245Z,32.33
2018-12-20T17:36:25.276Z,26.87
2018-12-20T17:38:56.457Z,30.27
2018-12-20T17:41:26.548Z,25.67
2018-12-20T17:43:56.832Z,33.40
2018-12-20T17:46:27.009Z,33.03
2018-12-20T17:48:57.098Z,28.27
2018-12-20T17:51:27.157Z,29.80
2018-12-20T17:53:57.262Z,30.83
2018-12-20T17:56:27.335Z,35.13
2018-12-20T17:58:57.369Z,35.60
2018-12-20T18:01:27.559Z,42.57
2018-12-20T18:03:57.645Z,31.60
2018-12-20T18:06:27.753Z,35.83
2018-12-20T18:08:57.840Z,41.93
2018-12-20T18:11:27.918Z,34.53
2018-12-20T18:13:57.985Z,40.53
2018-12-20T18:16:28.241Z,38.80
2018-12-20T18:18:58.348Z,29.10
2018-12-20T18:21:28.407Z,36.90
2018-12-20T18:23:58.504Z,25.53
2018-12-20T18:26:29.372Z,20.53
2018-12-20T18:28:59.433Z,18.43
2018-12-20T18:31:29.469Z,20.33
2018-12-20T18:33:59.590Z,18.50
2018-12-20T18:36:29.708Z,16.63
2018-12-20T18:38:59.728Z,20.43
2018-12-20T18:41:29.789Z,19.00
2018-12-20T18:44:00.757Z,18.73
2018-12-20T18:46:31.257Z,23.17
2018-12-20T18:49:01.329Z,24.53
2018-12-20T18:51:31.495Z,21.53
2018-12-20T18:54:01.569Z,20.30
2018-12-20T18:56:31.638Z,23.57
2018-12-20T18:59:01.682Z,19.37
2018-12-20T19:01:32.094Z,16.63
2018-12-20T19:04:02.364Z,20.70
2018-12-20T19:06:32.703Z,26.77
2018-12-20T19:09:02.916Z,20.10
2018-12-20T19:11:32.976Z,23.50
2018-12-20T19:14:03.004Z,21.33
2018-12-20T19:16:33.051Z,19.37
2018-12-20T19:19:03.242Z,19.40
2018-12-20T19:21:33.288Z,16.07
2018-12-20T19:24:04.496Z,13.67
2018-12-20T19:26:34.760Z,15.40
2018-12-20T19:29:04.925Z,18.77
2018-12-20T19:31:35.029Z,19.00
2018-12-20T19:34:05.042Z,13.50
2018-12-20T19:36:35.469Z,21.93
2018-12-20T19:39:12.211Z,14.63
2018-12-20T19:41:42.428Z,14.30
2018-12-20T19:44:12.606Z,17.90
2018-12-20T19:46:48.805Z,19.63
2018-12-20T19:49:18.970Z,32.93
2018-12-20T19:51:49.032Z,28.77
2018-12-20T19:54:19.213Z,29.20
2018-12-20T19:56:49.408Z,31.70
2018-12-20T19:59:19.686Z,36.33
2018-12-20T20:01:50.164Z,34.10
2018-12-20T20:04:20.324Z,34.50
2018-12-20T20:06:50.449Z,38.33
2018-12-20T20:09:20.664Z,23.73
2018-12-20T20:11:50.668Z,40.47
2018-12-20T20:14:20.916Z,45.03
2018-12-20T20:16:51.202Z,69.30
2018-12-20T20:19:21.738Z,52.57
2018-12-20T20:21:51.927Z,51.70
2018-12-20T20:24:21.986Z,37.60
2018-12-20T20:26:51.997Z,35.00
2018-12-20T20:29:22.024Z,25.17
2018-12-20T20:31:52.170Z,17.83
2018-12-20T20:34:23.099Z,24.80
2018-12-20T20:36:53.499Z,15.07
2018-12-20T20:39:23.926Z,20.60
2018-12-20T20:41:54.301Z,18.33
2018-12-20T20:44:24.346Z,45.83
2018-12-20T20:46:55.572Z,70.67
2018-12-20T20:49:25.591Z,87.17
2018-12-20T20:51:55.998Z,69.07
2018-12-20T20:54:26.019Z,65.90
2018-12-20T20:56:56.050Z,101.43
2018-12-20T20:59:50.796Z,89.53
2018-12-20T21:02:19.756Z,77.90
2018-12-20T21:04:51.011Z,79.07
2018-12-20T21:07:21.257Z,71.47
2018-12-20T21:09:51.520Z,65.93
2018-12-20T21:12:22.979Z,69.70
2018-12-20T21:14:53.722Z,47.13
2018-12-20T21:17:23.766Z,42.90
2018-12-20T21:19:53.994Z,38.70
2018-12-20T21:22:24.006Z,44.10
2018-12-20T21:24:54.050Z,27.97
2018-12-20T21:27:24.406Z,29.80
2018-12-20T21:29:54.471Z,29.13
2018-12-20T21:32:24.805Z,21.80
2018-12-20T21:34:55.065Z,21.10
2018-12-20T21:37:25.080Z,24.33
2018-12-20T21:39:55.538Z,18.10
2018-12-20T21:42:25.721Z,24.43
2018-12-20T21:44:55.857Z,38.13
2018-12-20T21:47:26.213Z,34.87
2018-12-20T21:49:56.675Z,24.60
2018-12-20T21:52:26.718Z,15.97
2018-12-20T21:54:56.879Z,18.50
2018-12-20T21:57:26.928Z,16.33
2018-12-20T22:00:01.218Z,15.50
2018-12-20T22:02:29.444Z,12.03
2018-12-20T22:11:00.594Z,15.17
2018-12-20T22:13:30.912Z,11.83
2018-12-20T22:16:01.089Z,12.57
2018-12-20T22:18:31.102Z,13.17
2018-12-20T22:21:01.341Z,13.30
2018-12-20T22:23:31.412Z,12.60
2018-12-20T22:26:01.534Z,15.27
2018-12-20T22:28:31.564Z,12.80
2018-12-20T22:31:01.624Z,23.03
2018-12-20T22:33:31.732Z,22.00
2018-12-20T22:36:01.911Z,17.07
2018-12-20T22:38:31.952Z,16.60
2018-12-20T22:47:12.461Z,24.37
2018-12-20T22:49:42.494Z,17.93
2018-12-20T22:52:12.570Z,24.37
2018-12-20T22:54:42.585Z,20.13
2018-12-20T22:57:12.703Z,17.80
2018-12-20T22:59:42.861Z,16.60
2018-12-20T23:02:17.997Z,18.70
2018-12-20T23:04:46.981Z,11.60
2018-12-20T23:07:17.020Z,13.47
2018-12-20T23:09:47.187Z,19.50
2018-12-20T23:12:18.113Z,21.13
2018-12-20T23:14:48.380Z,12.00
2018-12-20T23:17:18.560Z,11.37
2018-12-20T23:19:48.955Z,9.60
2018-12-20T23:22:19.004Z,7.20
2018-12-20T23:24:49.369Z,5.37
2018-12-20T23:27:19.589Z,4.17
2018-12-20T23:29:49.609Z,7.07
2018-12-20T23:32:20.010Z,5.00
2018-12-20T23:34:50.045Z,6.13
2018-12-20T23:37:20.275Z,5.17
2018-12-20T23:39:50.473Z,4.30
2018-12-20T23:42:20.699Z,5.10
2018-12-20T23:44:50.711Z,4.33
2018-12-20T23:47:20.737Z,4.37
2018-12-20T23:49:50.841Z,6.87
2018-12-20T23:52:20.851Z,8.80
2018-12-20T23:54:50.883Z,13.93
2018-12-20T23:57:20.889Z,18.37
2018-12-20T23:59:51.039Z,17.73
